sensor_id;sensor_type;location;lat;lon;timestamp;temperature;humidity
1049;DHT22;513;51.444;7.196;2022-10-18T00:00:53;14.80;99.90
1049;DHT22;513;51.444;7.196;2022-10-18T00:03:19;14.80;99.90
1049;DHT22;513;51.444;7.196;2022-10-18T00:05:48;14.80;99.90
1049;DHT22;513;51.444;7.196;2022-10-18T00:08:16;14.70;99.90
1049;DHT22;513;51.444;7.196;2022-10-18T00:10:43;14.80;99.90
1049;DHT22;513;51.444;7.196;2022-10-18T00:13:10;14.80;99.90
1049;DHT22;513;51.444;7.196;2022-10-18T00:15:37;14.80;99.90
1049;DHT22;513;51.444;7.196;2022-10-18T00:18:03;14.90;99.90
1049;DHT22;513;51.444;7.196;2022-10-18T00:20:30;14.90;99.90
1049;DHT22;513;51.444;7.196;2022-10-18T00:22:58;14.90;99.90
1049;DHT22;513;51.444;7.196;2022-10-18T00:25:25;14.90;99.90
1049;DHT22;513;51.444;7.196;2022-10-18T00:27:52;15.00;99.90
1049;DHT22;513;51.444;7.196;2022-10-18T00:30:18;15.00;99.90
1049;DHT22;513;51.444;7.196;2022-10-18T00:32:45;15.00;99.90
1049;DHT22;513;51.444;7.196;2022-10-18T00:35:12;15.00;99.90
1049;DHT22;513;51.444;7.196;2022-10-18T00:37:38;15.00;99.90
1049;DHT22;513;51.444;7.196;2022-10-18T00:40:08;15.10;99.90
1049;DHT22;513;51.444;7.196;2022-10-18T00:42:37;15.10;99.90
1049;DHT22;513;51.444;7.196;2022-10-18T00:45:19;15.00;99.90
1049;DHT22;513;51.444;7.196;2022-10-18T00:47:50;15.00;99.90
1049;DHT22;513;51.444;7.196;2022-10-18T00:50:19;15.00;99.90
1049;DHT22;513;51.444;7.196;2022-10-18T00:52:49;15.10;99.90
1049;DHT22;513;51.444;7.196;2022-10-18T00:55:19;15.10;99.90
1049;DHT22;513;51.444;7.196;2022-10-18T00:57:46;15.10;99.90
1049;DHT22;513;51.444;7.196;2022-10-18T01:00:13;15.10;99.90
1049;DHT22;513;51.444;7.196;2022-10-18T01:02:42;15.10;99.90
1049;DHT22;513;51.444;7.196;2022-10-18T01:05:10;15.10;99.90
1049;DHT22;513;51.444;7.196;2022-10-18T01:08:10;15.10;99.90
1049;DHT22;513;51.444;7.196;2022-10-18T01:10:48;15.10;99.90
1049;DHT22;513;51.444;7.196;2022-10-18T01:13:27;15.10;99.90
1049;DHT22;513;51.444;7.196;2022-10-18T01:15:59;15.10;99.90
1049;DHT22;513;51.444;7.196;2022-10-18T01:18:30;15.20;99.90
1049;DHT22;513;51.444;7.196;2022-10-18T01:21:12;15.20;99.90
1049;DHT22;513;51.444;7.196;2022-10-18T01:27:20;15.20;99.90
1049;DHT22;513;51.444;7.196;2022-10-18T01:30:00;15.20;99.90
1049;DHT22;513;51.444;7.196;2022-10-18T01:32:33;15.10;99.90
1049;DHT22;513;51.444;7.196;2022-10-18T01:35:06;15.10;99.90
1049;DHT22;513;51.444;7.196;2022-10-18T01:37:36;15.20;99.90
1049;DHT22;513;51.444;7.196;2022-10-18T01:40:05;15.20;99.90
1049;DHT22;513;51.444;7.196;2022-10-18T01:42:33;15.10;99.90
1049;DHT22;513;51.444;7.196;2022-10-18T01:45:02;15.10;99.90
1049;DHT22;513;51.444;7.196;2022-10-18T01:47:30;15.10;99.90
1049;DHT22;513;51.444;7.196;2022-10-18T01:49:58;15.20;99.90
1049;DHT22;513;51.444;7.196;2022-10-18T01:52:25;15.20;99.90
1049;DHT22;513;51.444;7.196;2022-10-18T01:54:53;15.20;99.90
1049;DHT22;513;51.444;7.196;2022-10-18T01:57:25;15.20;99.90
1049;DHT22;513;51.444;7.196;2022-10-18T01:59:57;15.20;99.90
1049;DHT22;513;51.444;7.196;2022-10-18T02:02:37;15.20;99.90
1049;DHT22;513;51.444;7.196;2022-10-18T02:05:14;15.20;99.90
1049;DHT22;513;51.444;7.196;2022-10-18T02:07:48;15.10;99.90
1049;DHT22;513;51.444;7.196;2022-10-18T02:10:20;15.20;99.90
1049;DHT22;513;51.444;7.196;2022-10-18T02:12:51;15.10;99.90
1049;DHT22;513;51.444;7.196;2022-10-18T02:15:22;15.20;99.90
1049;DHT22;513;51.444;7.196;2022-10-18T02:17:52;15.20;99.90
1049;DHT22;513;51.444;7.196;2022-10-18T02:20:21;15.20;99.90
1049;DHT22;513;51.444;7.196;2022-10-18T02:22:50;15.20;99.90
1049;DHT22;513;51.444;7.196;2022-10-18T02:25:21;15.20;99.90
1049;DHT22;513;51.444;7.196;2022-10-18T02:27:49;15.20;99.90
1049;DHT22;513;51.444;7.196;2022-10-18T02:30:16;15.20;99.90
1049;DHT22;513;51.444;7.196;2022-10-18T02:32:47;15.20;99.90
1049;DHT22;513;51.444;7.196;2022-10-18T02:35:18;15.20;99.90
1049;DHT22;513;51.444;7.196;2022-10-18T02:37:47;15.10;99.90
1049;DHT22;513;51.444;7.196;2022-10-18T02:40:15;15.10;99.90
1049;DHT22;513;51.444;7.196;2022-10-18T02:42:45;15.10;99.90
1049;DHT22;513;51.444;7.196;2022-10-18T02:45:14;15.10;99.90
1049;DHT22;513;51.444;7.196;2022-10-18T02:47:40;15.10;99.90
1049;DHT22;513;51.444;7.196;2022-10-18T02:50:08;15.20;99.90
1049;DHT22;513;51.444;7.196;2022-10-18T02:52:36;15.20;99.90
1049;DHT22;513;51.444;7.196;2022-10-18T02:55:04;15.20;99.90
1049;DHT22;513;51.444;7.196;2022-10-18T02:57:31;15.20;99.90
1049;DHT22;513;51.444;7.196;2022-10-18T02:59:57;15.20;99.90
1049;DHT22;513;51.444;7.196;2022-10-18T03:02:24;15.20;99.90
1049;DHT22;513;51.444;7.196;2022-10-18T03:04:51;15.20;99.90
1049;DHT22;513;51.444;7.196;2022-10-18T03:07:18;15.20;99.90
1049;DHT22;513;51.444;7.196;2022-10-18T03:09:46;15.20;99.90
1049;DHT22;513;51.444;7.196;2022-10-18T03:12:13;15.20;99.90
1049;DHT22;513;51.444;7.196;2022-10-18T03:14:39;15.20;99.90
1049;DHT22;513;51.444;7.196;2022-10-18T03:17:06;15.20;99.90
1049;DHT22;513;51.444;7.196;2022-10-18T03:19:33;15.20;99.90
1049;DHT22;513;51.444;7.196;2022-10-18T03:22:00;15.20;99.90
1049;DHT22;513;51.444;7.196;2022-10-18T03:24:26;15.20;99.90
1049;DHT22;513;51.444;7.196;2022-10-18T03:26:54;15.20;99.90
1049;DHT22;513;51.444;7.196;2022-10-18T03:29:21;15.20;99.90
1049;DHT22;513;51.444;7.196;2022-10-18T03:31:47;15.20;99.90
1049;DHT22;513;51.444;7.196;2022-10-18T03:34:14;15.20;99.90
1049;DHT22;513;51.444;7.196;2022-10-18T03:36:42;15.20;99.90
1049;DHT22;513;51.444;7.196;2022-10-18T03:39:10;15.20;99.90
1049;DHT22;513;51.444;7.196;2022-10-18T03:41:37;15.20;99.90
1049;DHT22;513;51.444;7.196;2022-10-18T03:44:05;15.20;99.90
1049;DHT22;513;51.444;7.196;2022-10-18T03:46:32;15.20;99.90
1049;DHT22;513;51.444;7.196;2022-10-18T03:48:58;15.30;99.90
1049;DHT22;513;51.444;7.196;2022-10-18T03:51:25;15.30;99.90
1049;DHT22;513;51.444;7.196;2022-10-18T03:53:52;15.30;99.90
1049;DHT22;513;51.444;7.196;2022-10-18T03:56:18;15.30;99.90
1049;DHT22;513;51.444;7.196;2022-10-18T03:58:45;15.30;99.90
1049;DHT22;513;51.444;7.196;2022-10-18T04:01:13;15.30;99.90
1049;DHT22;513;51.444;7.196;2022-10-18T04:03:40;15.30;99.90
1049;DHT22;513;51.444;7.196;2022-10-18T04:06:06;15.30;99.90
1049;DHT22;513;51.444;7.196;2022-10-18T04:08:34;15.30;99.90
1049;DHT22;513;51.444;7.196;2022-10-18T04:11:04;15.30;99.90
1049;DHT22;513;51.444;7.196;2022-10-18T04:13:32;15.30;99.90
1049;DHT22;513;51.444;7.196;2022-10-18T04:15:59;15.30;99.90
1049;DHT22;513;51.444;7.196;2022-10-18T04:18:27;15.30;99.90
1049;DHT22;513;51.444;7.196;2022-10-18T04:20:54;15.30;99.90
1049;DHT22;513;51.444;7.196;2022-10-18T04:23:20;15.30;99.90
1049;DHT22;513;51.444;7.196;2022-10-18T04:25:47;15.30;99.90
1049;DHT22;513;51.444;7.196;2022-10-18T04:28:14;15.30;99.90
1049;DHT22;513;51.444;7.196;2022-10-18T04:30:40;15.30;99.90
1049;DHT22;513;51.444;7.196;2022-10-18T04:33:07;15.30;99.90
1049;DHT22;513;51.444;7.196;2022-10-18T04:35:35;15.30;99.90
1049;DHT22;513;51.444;7.196;2022-10-18T04:38:02;15.30;99.90
1049;DHT22;513;51.444;7.196;2022-10-18T04:40:28;15.30;99.90
1049;DHT22;513;51.444;7.196;2022-10-18T04:42:55;15.30;99.90
1049;DHT22;513;51.444;7.196;2022-10-18T04:45:22;15.30;99.90
1049;DHT22;513;51.444;7.196;2022-10-18T04:47:48;15.30;99.90
1049;DHT22;513;51.444;7.196;2022-10-18T04:50:15;15.30;99.90
1049;DHT22;513;51.444;7.196;2022-10-18T04:52:43;15.20;99.90
1049;DHT22;513;51.444;7.196;2022-10-18T04:55:10;15.30;99.90
1049;DHT22;513;51.444;7.196;2022-10-18T04:57:36;15.30;99.90
1049;DHT22;513;51.444;7.196;2022-10-18T05:00:04;15.30;99.90
1049;DHT22;513;51.444;7.196;2022-10-18T05:02:31;15.30;99.90
1049;DHT22;513;51.444;7.196;2022-10-18T05:04:57;15.30;99.90
1049;DHT22;513;51.444;7.196;2022-10-18T05:07:24;15.40;99.90
1049;DHT22;513;51.444;7.196;2022-10-18T05:09:53;15.30;99.90
1049;DHT22;513;51.444;7.196;2022-10-18T05:12:19;15.30;99.90
1049;DHT22;513;51.444;7.196;2022-10-18T05:14:46;15.30;99.90
1049;DHT22;513;51.444;7.196;2022-10-18T05:17:13;15.30;99.90
1049;DHT22;513;51.444;7.196;2022-10-18T05:19:40;15.30;99.90
1049;DHT22;513;51.444;7.196;2022-10-18T05:22:06;15.30;99.90
1049;DHT22;513;51.444;7.196;2022-10-18T05:24:33;15.20;99.90
1049;DHT22;513;51.444;7.196;2022-10-18T05:27:01;15.10;99.90
1049;DHT22;513;51.444;7.196;2022-10-18T05:29:28;15.10;99.90
1049;DHT22;513;51.444;7.196;2022-10-18T05:31:55;15.20;99.90
1049;DHT22;513;51.444;7.196;2022-10-18T05:34:21;15.20;99.90
1049;DHT22;513;51.444;7.196;2022-10-18T05:36:49;15.10;99.90
1049;DHT22;513;51.444;7.196;2022-10-18T05:39:15;15.20;99.90
1049;DHT22;513;51.444;7.196;2022-10-18T05:41:42;15.20;99.90
1049;DHT22;513;51.444;7.196;2022-10-18T05:44:10;15.20;99.90
1049;DHT22;513;51.444;7.196;2022-10-18T05:46:37;15.30;99.90
1049;DHT22;513;51.444;7.196;2022-10-18T05:49:03;15.30;99.90
1049;DHT22;513;51.444;7.196;2022-10-18T05:51:30;15.30;99.90
1049;DHT22;513;51.444;7.196;2022-10-18T05:53:57;15.30;99.90
1049;DHT22;513;51.444;7.196;2022-10-18T05:56:24;15.30;99.90
1049;DHT22;513;51.444;7.196;2022-10-18T05:58:51;15.30;99.90
1049;DHT22;513;51.444;7.196;2022-10-18T06:01:19;15.30;99.90
1049;DHT22;513;51.444;7.196;2022-10-18T06:03:46;15.30;99.90
1049;DHT22;513;51.444;7.196;2022-10-18T06:06:13;15.30;99.90
1049;DHT22;513;51.444;7.196;2022-10-18T06:08:42;15.40;99.90
1049;DHT22;513;51.444;7.196;2022-10-18T06:11:13;15.40;99.90
1049;DHT22;513;51.444;7.196;2022-10-18T06:13:40;15.40;99.90
1049;DHT22;513;51.444;7.196;2022-10-18T06:16:07;15.40;99.90
1049;DHT22;513;51.444;7.196;2022-10-18T06:18:36;15.30;99.90
1049;DHT22;513;51.444;7.196;2022-10-18T06:21:03;15.30;99.90
1049;DHT22;513;51.444;7.196;2022-10-18T06:23:30;15.30;99.90
1049;DHT22;513;51.444;7.196;2022-10-18T06:26:01;15.40;99.90
1049;DHT22;513;51.444;7.196;2022-10-18T06:28:28;15.40;99.90
1049;DHT22;513;51.444;7.196;2022-10-18T06:30:55;15.40;99.90
1049;DHT22;513;51.444;7.196;2022-10-18T06:33:22;15.50;99.90
1049;DHT22;513;51.444;7.196;2022-10-18T06:35:57;15.50;99.90
1049;DHT22;513;51.444;7.196;2022-10-18T06:38:24;15.60;99.90
1049;DHT22;513;51.444;7.196;2022-10-18T06:40:51;15.60;99.90
1049;DHT22;513;51.444;7.196;2022-10-18T06:43:18;15.60;99.90
1049;DHT22;513;51.444;7.196;2022-10-18T06:45:45;15.70;99.90
1049;DHT22;513;51.444;7.196;2022-10-18T06:48:11;15.60;99.90
1049;DHT22;513;51.444;7.196;2022-10-18T06:50:38;15.60;99.90
1049;DHT22;513;51.444;7.196;2022-10-18T06:53:06;15.50;99.90
1049;DHT22;513;51.444;7.196;2022-10-18T06:55:34;15.50;99.90
1049;DHT22;513;51.444;7.196;2022-10-18T06:58:01;15.50;99.90
1049;DHT22;513;51.444;7.196;2022-10-18T07:00:27;15.50;99.90
1049;DHT22;513;51.444;7.196;2022-10-18T07:02:55;15.60;99.90
1049;DHT22;513;51.444;7.196;2022-10-18T07:05:22;15.60;99.90
1049;DHT22;513;51.444;7.196;2022-10-18T07:07:48;15.50;99.90
1049;DHT22;513;51.444;7.196;2022-10-18T07:10:16;15.50;99.90
1049;DHT22;513;51.444;7.196;2022-10-18T07:12:43;15.40;99.90
1049;DHT22;513;51.444;7.196;2022-10-18T07:15:10;15.40;99.90
1049;DHT22;513;51.444;7.196;2022-10-18T07:17:36;15.40;99.90
1049;DHT22;513;51.444;7.196;2022-10-18T07:20:03;15.40;99.90
1049;DHT22;513;51.444;7.196;2022-10-18T07:22:30;15.50;99.90
1049;DHT22;513;51.444;7.196;2022-10-18T07:24:58;15.50;99.90
1049;DHT22;513;51.444;7.196;2022-10-18T07:27:26;15.60;99.90
1049;DHT22;513;51.444;7.196;2022-10-18T07:29:53;15.60;99.90
1049;DHT22;513;51.444;7.196;2022-10-18T07:32:20;15.60;99.90
1049;DHT22;513;51.444;7.196;2022-10-18T07:34:46;15.60;99.90
1049;DHT22;513;51.444;7.196;2022-10-18T07:37:13;15.60;99.90
1049;DHT22;513;51.444;7.196;2022-10-18T07:39:40;15.60;99.90
1049;DHT22;513;51.444;7.196;2022-10-18T07:42:06;15.70;99.90
1049;DHT22;513;51.444;7.196;2022-10-18T07:44:34;15.70;99.90
1049;DHT22;513;51.444;7.196;2022-10-18T07:47:01;15.70;99.90
1049;DHT22;513;51.444;7.196;2022-10-18T07:49:28;15.70;99.90
1049;DHT22;513;51.444;7.196;2022-10-18T07:51:54;15.70;99.90
1049;DHT22;513;51.444;7.196;2022-10-18T07:54:21;15.70;99.90
1049;DHT22;513;51.444;7.196;2022-10-18T07:56:48;15.80;99.90
1049;DHT22;513;51.444;7.196;2022-10-18T07:59:14;15.80;99.90
1049;DHT22;513;51.444;7.196;2022-10-18T08:01:42;15.90;99.90
1049;DHT22;513;51.444;7.196;2022-10-18T08:04:09;15.90;99.90
1049;DHT22;513;51.444;7.196;2022-10-18T08:06:36;15.90;99.90
1049;DHT22;513;51.444;7.196;2022-10-18T08:09:03;15.80;99.90
1049;DHT22;513;51.444;7.196;2022-10-18T08:11:30;15.90;99.90
1049;DHT22;513;51.444;7.196;2022-10-18T08:13:56;15.80;99.90
1049;DHT22;513;51.444;7.196;2022-10-18T08:16:25;15.90;99.90
1049;DHT22;513;51.444;7.196;2022-10-18T08:18:53;15.90;99.90
1049;DHT22;513;51.444;7.196;2022-10-18T08:21:22;15.90;99.90
1049;DHT22;513;51.444;7.196;2022-10-18T08:23:49;15.90;99.90
1049;DHT22;513;51.444;7.196;2022-10-18T08:26:18;15.80;99.90
1049;DHT22;513;51.444;7.196;2022-10-18T08:28:45;15.80;99.90
1049;DHT22;513;51.444;7.196;2022-10-18T08:31:13;15.80;99.90
1049;DHT22;513;51.444;7.196;2022-10-18T08:33:42;15.80;99.90
1049;DHT22;513;51.444;7.196;2022-10-18T08:36:11;15.80;99.90
1049;DHT22;513;51.444;7.196;2022-10-18T08:38:40;15.80;99.90
1049;DHT22;513;51.444;7.196;2022-10-18T08:41:22;15.80;99.90
1049;DHT22;513;51.444;7.196;2022-10-18T08:43:56;15.90;99.90
1049;DHT22;513;51.444;7.196;2022-10-18T08:46:24;15.70;99.90
1049;DHT22;513;51.444;7.196;2022-10-18T08:48:53;15.60;99.90
1049;DHT22;513;51.444;7.196;2022-10-18T08:51:26;15.60;99.90
1049;DHT22;513;51.444;7.196;2022-10-18T08:54:00;15.50;99.90
1049;DHT22;513;51.444;7.196;2022-10-18T08:56:28;15.60;99.90
1049;DHT22;513;51.444;7.196;2022-10-18T08:58:54;15.60;99.90
1049;DHT22;513;51.444;7.196;2022-10-18T09:01:27;15.50;99.90
1049;DHT22;513;51.444;7.196;2022-10-18T09:04:09;15.50;99.90
1049;DHT22;513;51.444;7.196;2022-10-18T09:06:46;15.50;99.90
1049;DHT22;513;51.444;7.196;2022-10-18T09:09:24;15.50;99.90
1049;DHT22;513;51.444;7.196;2022-10-18T09:12:00;15.60;99.90
1049;DHT22;513;51.444;7.196;2022-10-18T09:14:46;15.50;99.90
1049;DHT22;513;51.444;7.196;2022-10-18T09:17:22;15.50;99.90
1049;DHT22;513;51.444;7.196;2022-10-18T09:20:02;15.60;99.90
1049;DHT22;513;51.444;7.196;2022-10-18T09:22:40;15.50;99.90
1049;DHT22;513;51.444;7.196;2022-10-18T09:25:16;15.50;99.90
1049;DHT22;513;51.444;7.196;2022-10-18T09:27:50;15.50;99.90
1049;DHT22;513;51.444;7.196;2022-10-18T09:30:34;15.60;99.90
1049;DHT22;513;51.444;7.196;2022-10-18T09:33:10;15.70;99.90
1049;DHT22;513;51.444;7.196;2022-10-18T09:35:46;15.60;99.90
1049;DHT22;513;51.444;7.196;2022-10-18T09:38:20;15.50;99.90
1049;DHT22;513;51.444;7.196;2022-10-18T09:40:52;15.50;99.90
1049;DHT22;513;51.444;7.196;2022-10-18T09:43:22;15.60;99.90
1049;DHT22;513;51.444;7.196;2022-10-18T09:45:52;15.60;99.90
1049;DHT22;513;51.444;7.196;2022-10-18T09:48:21;15.60;99.90
1049;DHT22;513;51.444;7.196;2022-10-18T09:50:53;15.60;99.90
1049;DHT22;513;51.444;7.196;2022-10-18T09:53:29;15.70;99.90
1049;DHT22;513;51.444;7.196;2022-10-18T09:56:02;15.80;99.90
1049;DHT22;513;51.444;7.196;2022-10-18T09:58:39;15.90;99.90
1049;DHT22;513;51.444;7.196;2022-10-18T10:01:07;16.00;99.90
1049;DHT22;513;51.444;7.196;2022-10-18T10:03:35;16.20;99.90
1049;DHT22;513;51.444;7.196;2022-10-18T10:06:14;16.30;99.90
1049;DHT22;513;51.444;7.196;2022-10-18T10:08:47;16.50;99.90
1049;DHT22;513;51.444;7.196;2022-10-18T10:11:35;16.50;99.90
1049;DHT22;513;51.444;7.196;2022-10-18T10:14:13;16.50;99.90
1049;DHT22;513;51.444;7.196;2022-10-18T10:16:46;16.40;99.90
1049;DHT22;513;51.444;7.196;2022-10-18T10:19:19;16.50;99.90
1049;DHT22;513;51.444;7.196;2022-10-18T10:21:47;16.60;99.90
1049;DHT22;513;51.444;7.196;2022-10-18T10:24:23;16.70;99.90
1049;DHT22;513;51.444;7.196;2022-10-18T10:26:58;16.70;99.90
1049;DHT22;513;51.444;7.196;2022-10-18T10:29:54;16.80;99.90
1049;DHT22;513;51.444;7.196;2022-10-18T10:32:27;16.80;99.90
1049;DHT22;513;51.444;7.196;2022-10-18T10:34:55;16.70;99.90
1049;DHT22;513;51.444;7.196;2022-10-18T10:37:31;16.80;99.90
1049;DHT22;513;51.444;7.196;2022-10-18T10:40:17;17.00;99.90
1049;DHT22;513;51.444;7.196;2022-10-18T10:43:02;17.00;99.90
1049;DHT22;513;51.444;7.196;2022-10-18T10:45:33;17.10;99.90
1049;DHT22;513;51.444;7.196;2022-10-18T10:48:12;17.10;99.90
1049;DHT22;513;51.444;7.196;2022-10-18T10:50:49;17.10;99.90
1049;DHT22;513;51.444;7.196;2022-10-18T10:53:26;17.10;99.90
1049;DHT22;513;51.444;7.196;2022-10-18T10:55:55;17.30;99.90
1049;DHT22;513;51.444;7.196;2022-10-18T10:58:24;17.30;99.90
1049;DHT22;513;51.444;7.196;2022-10-18T11:00:51;17.20;99.90
1049;DHT22;513;51.444;7.196;2022-10-18T11:03:20;17.10;99.90
1049;DHT22;513;51.444;7.196;2022-10-18T11:05:49;17.10;99.90
1049;DHT22;513;51.444;7.196;2022-10-18T11:08:19;17.20;99.90
1049;DHT22;513;51.444;7.196;2022-10-18T11:10:55;17.20;99.90
1049;DHT22;513;51.444;7.196;2022-10-18T11:13:30;17.20;99.90
1049;DHT22;513;51.444;7.196;2022-10-18T11:16:04;17.30;99.90
1049;DHT22;513;51.444;7.196;2022-10-18T11:18:34;17.30;99.90
1049;DHT22;513;51.444;7.196;2022-10-18T11:21:05;17.50;99.90
1049;DHT22;513;51.444;7.196;2022-10-18T11:23:34;17.40;99.90
1049;DHT22;513;51.444;7.196;2022-10-18T11:26:17;17.40;99.90
1049;DHT22;513;51.444;7.196;2022-10-18T11:29:00;17.40;99.90
1049;DHT22;513;51.444;7.196;2022-10-18T11:31:36;17.50;99.90
1049;DHT22;513;51.444;7.196;2022-10-18T11:34:18;17.50;99.90
1049;DHT22;513;51.444;7.196;2022-10-18T11:36:52;17.40;99.90
1049;DHT22;513;51.444;7.196;2022-10-18T11:39:26;17.20;99.90
1049;DHT22;513;51.444;7.196;2022-10-18T11:42:04;17.20;99.90
1049;DHT22;513;51.444;7.196;2022-10-18T11:44:38;17.10;99.90
1049;DHT22;513;51.444;7.196;2022-10-18T11:47:12;17.20;99.90
1049;DHT22;513;51.444;7.196;2022-10-18T11:49:56;17.10;99.90
1049;DHT22;513;51.444;7.196;2022-10-18T11:52:30;17.20;99.90
1049;DHT22;513;51.444;7.196;2022-10-18T11:55:09;17.30;99.90
1049;DHT22;513;51.444;7.196;2022-10-18T11:57:44;17.40;99.90
1049;DHT22;513;51.444;7.196;2022-10-18T12:00:24;17.40;99.90
1049;DHT22;513;51.444;7.196;2022-10-18T12:03:10;17.50;99.90
1049;DHT22;513;51.444;7.196;2022-10-18T12:05:40;17.60;99.90
1049;DHT22;513;51.444;7.196;2022-10-18T12:08:12;17.80;99.90
1049;DHT22;513;51.444;7.196;2022-10-18T12:10:42;17.80;99.90
1049;DHT22;513;51.444;7.196;2022-10-18T12:13:15;17.80;99.90
1049;DHT22;513;51.444;7.196;2022-10-18T12:15:42;17.80;99.90
1049;DHT22;513;51.444;7.196;2022-10-18T12:18:13;17.80;99.90
1049;DHT22;513;51.444;7.196;2022-10-18T12:20:44;17.70;99.90
1049;DHT22;513;51.444;7.196;2022-10-18T12:23:14;17.70;99.90
1049;DHT22;513;51.444;7.196;2022-10-18T12:25:45;17.70;99.90
1049;DHT22;513;51.444;7.196;2022-10-18T12:28:20;17.60;99.90
1049;DHT22;513;51.444;7.196;2022-10-18T12:30:52;17.60;99.90
1049;DHT22;513;51.444;7.196;2022-10-18T12:33:26;17.70;99.90
1049;DHT22;513;51.444;7.196;2022-10-18T12:36:03;17.90;99.90
1049;DHT22;513;51.444;7.196;2022-10-18T12:38:33;17.90;99.90
1049;DHT22;513;51.444;7.196;2022-10-18T12:41:02;17.90;99.90
1049;DHT22;513;51.444;7.196;2022-10-18T12:43:32;17.90;99.90
1049;DHT22;513;51.444;7.196;2022-10-18T12:46:04;17.90;99.90
1049;DHT22;513;51.444;7.196;2022-10-18T12:48:33;17.80;99.90
1049;DHT22;513;51.444;7.196;2022-10-18T12:51:05;17.90;99.90
1049;DHT22;513;51.444;7.196;2022-10-18T12:53:37;18.00;99.90
1049;DHT22;513;51.444;7.196;2022-10-18T12:56:32;18.10;99.90
1049;DHT22;513;51.444;7.196;2022-10-18T13:02:28;18.20;99.90
1049;DHT22;513;51.444;7.196;2022-10-18T13:04:56;18.30;99.90
1049;DHT22;513;51.444;7.196;2022-10-18T13:07:34;18.10;99.90
1049;DHT22;513;51.444;7.196;2022-10-18T13:10:38;18.00;99.90
1049;DHT22;513;51.444;7.196;2022-10-18T13:13:25;17.90;99.90
1049;DHT22;513;51.444;7.196;2022-10-18T13:16:01;17.90;99.90
1049;DHT22;513;51.444;7.196;2022-10-18T13:18:38;17.90;99.90
1049;DHT22;513;51.444;7.196;2022-10-18T13:21:15;17.90;99.90
1049;DHT22;513;51.444;7.196;2022-10-18T13:23:59;17.80;99.90
1049;DHT22;513;51.444;7.196;2022-10-18T13:26:33;17.80;99.90
1049;DHT22;513;51.444;7.196;2022-10-18T13:29:15;17.80;99.90
1049;DHT22;513;51.444;7.196;2022-10-18T13:31:51;17.90;99.90
1049;DHT22;513;51.444;7.196;2022-10-18T13:34:29;18.00;99.90
1049;DHT22;513;51.444;7.196;2022-10-18T13:37:00;18.00;99.90
1049;DHT22;513;51.444;7.196;2022-10-18T13:39:28;18.00;99.90
1049;DHT22;513;51.444;7.196;2022-10-18T13:42:28;17.90;99.90
1049;DHT22;513;51.444;7.196;2022-10-18T13:45:43;17.90;99.90
1049;DHT22;513;51.444;7.196;2022-10-18T13:48:43;17.80;94.30
1049;DHT22;513;51.444;7.196;2022-10-18T13:54:16;17.50;96.40
1049;DHT22;513;51.444;7.196;2022-10-18T13:56:51;17.30;95.70
1049;DHT22;513;51.444;7.196;2022-10-18T13:59:48;17.30;99.90
1049;DHT22;513;51.444;7.196;2022-10-18T14:02:38;17.30;97.30
1049;DHT22;513;51.444;7.196;2022-10-18T14:05:15;17.30;84.50
1049;DHT22;513;51.444;7.196;2022-10-18T14:07:48;17.20;28.10
1049;DHT22;513;51.444;7.196;2022-10-18T14:10:21;17.10;1.00
1049;DHT22;513;51.444;7.196;2022-10-18T14:12:53;16.90;1.00
1049;DHT22;513;51.444;7.196;2022-10-18T14:15:23;16.80;1.00
1049;DHT22;513;51.444;7.196;2022-10-18T14:17:55;16.60;1.00
1049;DHT22;513;51.444;7.196;2022-10-18T14:20:26;16.50;1.00
1049;DHT22;513;51.444;7.196;2022-10-18T14:23:00;16.50;1.00
1049;DHT22;513;51.444;7.196;2022-10-18T14:25:30;16.50;1.00
1049;DHT22;513;51.444;7.196;2022-10-18T14:28:05;16.50;1.00
1049;DHT22;513;51.444;7.196;2022-10-18T14:30:33;16.50;1.00
1049;DHT22;513;51.444;7.196;2022-10-18T14:33:00;16.50;1.00
1049;DHT22;513;51.444;7.196;2022-10-18T14:35:29;16.50;1.00
1049;DHT22;513;51.444;7.196;2022-10-18T14:37:58;16.50;1.00
1049;DHT22;513;51.444;7.196;2022-10-18T14:40:29;16.50;1.00
1049;DHT22;513;51.444;7.196;2022-10-18T14:42:55;16.50;1.00
1049;DHT22;513;51.444;7.196;2022-10-18T14:45:26;16.60;1.00
1049;DHT22;513;51.444;7.196;2022-10-18T14:47:53;16.50;1.00
1049;DHT22;513;51.444;7.196;2022-10-18T14:50:21;16.50;1.00
1049;DHT22;513;51.444;7.196;2022-10-18T14:52:48;16.50;1.00
1049;DHT22;513;51.444;7.196;2022-10-18T14:55:20;16.50;1.00
1049;DHT22;513;51.444;7.196;2022-10-18T14:57:48;16.50;1.00
1049;DHT22;513;51.444;7.196;2022-10-18T15:00:20;16.40;1.00
1049;DHT22;513;51.444;7.196;2022-10-18T15:02:49;16.40;1.00
1049;DHT22;513;51.444;7.196;2022-10-18T15:05:19;16.30;1.00
1049;DHT22;513;51.444;7.196;2022-10-18T15:07:47;16.30;1.00
1049;DHT22;513;51.444;7.196;2022-10-18T15:10:17;16.30;1.00
1049;DHT22;513;51.444;7.196;2022-10-18T15:12:46;16.30;1.00
1049;DHT22;513;51.444;7.196;2022-10-18T15:15:17;16.20;1.00
1049;DHT22;513;51.444;7.196;2022-10-18T15:17:45;16.20;1.00
1049;DHT22;513;51.444;7.196;2022-10-18T15:20:20;16.20;1.00
1049;DHT22;513;51.444;7.196;2022-10-18T15:22:49;16.20;1.00
1049;DHT22;513;51.444;7.196;2022-10-18T15:25:21;16.10;1.00
1049;DHT22;513;51.444;7.196;2022-10-18T15:27:52;16.10;1.00
1049;DHT22;513;51.444;7.196;2022-10-18T15:30:23;16.10;1.00
1049;DHT22;513;51.444;7.196;2022-10-18T15:32:54;16.00;1.00
1049;DHT22;513;51.444;7.196;2022-10-18T15:35:23;16.00;1.00
1049;DHT22;513;51.444;7.196;2022-10-18T15:37:51;15.90;1.00
1049;DHT22;513;51.444;7.196;2022-10-18T15:40:37;15.90;1.00
1049;DHT22;513;51.444;7.196;2022-10-18T15:43:05;15.90;1.00
1049;DHT22;513;51.444;7.196;2022-10-18T15:45:53;15.90;1.00
1049;DHT22;513;51.444;7.196;2022-10-18T15:48:23;15.80;1.00
1049;DHT22;513;51.444;7.196;2022-10-18T15:50:51;15.80;1.00
1049;DHT22;513;51.444;7.196;2022-10-18T15:53:28;15.80;1.00
1049;DHT22;513;51.444;7.196;2022-10-18T15:55:59;15.70;1.00
1049;DHT22;513;51.444;7.196;2022-10-18T15:58:27;15.60;7.50
1049;DHT22;513;51.444;7.196;2022-10-18T16:00:58;15.60;11.50
1049;DHT22;513;51.444;7.196;2022-10-18T16:03:25;15.50;17.70
1049;DHT22;513;51.444;7.196;2022-10-18T16:05:55;15.50;25.10
1049;DHT22;513;51.444;7.196;2022-10-18T16:08:25;15.40;21.50
1049;DHT22;513;51.444;7.196;2022-10-18T16:10:53;15.40;21.80
1049;DHT22;513;51.444;7.196;2022-10-18T16:13:21;15.40;27.30
1049;DHT22;513;51.444;7.196;2022-10-18T16:15:47;15.30;13.50
1049;DHT22;513;51.444;7.196;2022-10-18T16:18:16;15.20;18.70
1049;DHT22;513;51.444;7.196;2022-10-18T16:20:43;15.10;26.90
1049;DHT22;513;51.444;7.196;2022-10-18T16:23:16;15.10;35.30
1049;DHT22;513;51.444;7.196;2022-10-18T16:25:43;15.00;44.60
1049;DHT22;513;51.444;7.196;2022-10-18T16:28:12;14.90;56.90
1049;DHT22;513;51.444;7.196;2022-10-18T16:30:42;14.80;78.30
1049;DHT22;513;51.444;7.196;2022-10-18T16:33:09;14.70;99.70
1049;DHT22;513;51.444;7.196;2022-10-18T16:35:36;14.60;99.90
1049;DHT22;513;51.444;7.196;2022-10-18T16:38:02;14.50;99.90
1049;DHT22;513;51.444;7.196;2022-10-18T16:40:29;14.50;99.90
1049;DHT22;513;51.444;7.196;2022-10-18T16:42:56;14.60;99.90
1049;DHT22;513;51.444;7.196;2022-10-18T16:45:23;14.60;99.90
1049;DHT22;513;51.444;7.196;2022-10-18T16:47:51;14.70;99.90
1049;DHT22;513;51.444;7.196;2022-10-18T16:50:18;14.70;99.90
1049;DHT22;513;51.444;7.196;2022-10-18T16:52:46;14.70;99.90